Time;durP1;ratioP1;P1;durP2;ratioP2;P2;SDS_P1;SDS_P2;PMS_P1;PMS_P2;Temp;Humidity;BMP_temperature;BMP_pressure;BME280_temperature;BME280_humidity;BME280_pressure;Samples;Min_cycle;Max_cycle;Signal;HPM_P1;HPM_P2
2023/09/19 00:01:34;;;;;;;5.70;1.38;;;;;;;16.68;100.00;100991.59;5060551;28;20502;-83
2023/09/19 00:04:00;;;;;;;1.33;0.85;;;;;;;16.37;100.00;100996.50;5059460;28;20080;-83
2023/09/19 00:06:31;;;;;;;1.75;1.60;;;;;;;16.43;100.00;100993.72;5055869;28;20391;-83
2023/09/19 00:08:58;;;;;;;2.10;1.90;;;;;;;15.91;100.00;100967.13;5047491;28;20128;-84
2023/09/19 00:11:25;;;;;;;2.35;2.15;;;;;;;15.37;100.00;100896.31;5063140;28;20601;-82
2023/09/19 00:13:51;;;;;;;3.33;2.33;;;;;;;16.07;100.00;101036.63;5059590;28;20060;-84
2023/09/19 00:16:18;;;;;;;3.22;1.65;;;;;;;15.53;100.00;100940.22;5056103;28;20063;-84
2023/09/19 00:18:44;;;;;;;1.20;1.10;;;;;;;15.46;100.00;100906.78;5057636;28;20052;-85
2023/09/19 00:21:10;;;;;;;1.83;1.73;;;;;;;16.05;100.00;100996.94;5060938;28;20052;-82
2023/09/19 00:23:35;;;;;;;8.27;2.67;;;;;;;15.79;100.00;100999.91;5061814;28;20054;-82
2023/09/19 00:26:01;;;;;;;2.13;1.88;;;;;;;15.93;100.00;100987.38;5060115;28;20044;-81
2023/09/19 00:28:27;;;;;;;3.85;1.98;;;;;;;14.93;100.00;100864.19;5058154;28;20048;-80
2023/09/19 00:30:55;;;;;;;1.15;1.05;;;;;;;15.08;100.00;100892.25;5063939;28;20407;-80
2023/09/19 00:33:20;;;;;;;0.77;0.65;;;;;;;15.73;100.00;100979.69;5056058;28;20045;-81
2023/09/19 00:35:50;;;;;;;2.63;2.42;;;;;;;15.68;100.00;100977.94;5063447;28;20028;-80
2023/09/19 00:38:17;;;;;;;2.45;2.25;;;;;;;15.65;100.00;100955.06;5058179;28;20083;-81
2023/09/19 00:40:46;;;;;;;1.63;1.35;;;;;;;15.48;100.00;101008.16;5064636;28;20079;-82
2023/09/19 00:43:11;;;;;;;1.35;1.25;;;;;;;15.50;100.00;100998.44;5063635;28;20731;-81
2023/09/19 00:45:42;;;;;;;2.45;2.25;;;;;;;14.83;100.00;100894.25;5063813;28;20052;-79
2023/09/19 00:48:09;;;;;;;1.77;1.67;;;;;;;15.44;100.00;100984.41;5069981;28;20533;-81
2023/09/19 00:50:35;;;;;;;2.10;2.00;;;;;;;14.90;100.00;100905.66;5067574;28;20029;-80
2023/09/19 00:53:07;;;;;;;1.92;1.58;;;;;;;14.87;100.00;100884.56;5062387;28;20033;-81
2023/09/19 00:55:34;;;;;;;1.95;1.83;;;;;;;15.79;100.00;100984.03;5068075;28;20056;-81
2023/09/19 00:58:00;;;;;;;3.60;2.55;;;;;;;15.73;100.00;100953.25;5063648;28;20036;-81
2023/09/19 01:00:26;;;;;;;0.75;0.38;;;;;;;15.27;100.00;100852.38;5060682;28;20048;-82
2023/09/19 01:02:51;;;;;;;3.50;1.83;;;;;;;15.42;100.00;100971.19;5058799;28;20033;-81
2023/09/19 01:05:18;;;;;;;3.08;1.77;;;;;;;15.18;100.00;100967.03;5060050;28;20028;-82
2023/09/19 01:07:44;;;;;;;1.88;0.85;;;;;;;15.07;100.00;100979.47;5057101;28;20041;-82
2023/09/19 01:10:16;;;;;;;1.42;1.33;;;;;;;15.08;100.00;101005.03;5039440;28;20072;-82
2023/09/19 01:12:55;;;;;;;1.42;1.23;;;;;;;14.70;100.00;100933.16;5057069;28;20044;-82
2023/09/19 01:15:21;;;;;;;1.80;1.58;;;;;;;15.15;100.00;100989.09;5065033;28;20052;-83
2023/09/19 01:17:57;;;;;;;0.85;0.85;;;;;;;15.14;100.00;100989.09;5061942;28;20063;-85
2023/09/19 01:20:55;;;;;;;2.53;2.13;;;;;;;15.11;100.00;100983.84;5059532;28;20028;-83
2023/09/19 01:23:39;;;;;;;1.95;0.68;;;;;;;14.86;100.00;100947.06;5062881;28;20103;-83
2023/09/19 01:26:15;;;;;;;1.58;1.48;;;;;;;14.71;100.00;100919.03;5063779;28;20043;-83
2023/09/19 01:29:06;;;;;;;1.33;0.88;;;;;;;15.48;100.00;100972.91;5065359;28;20052;-84
2023/09/19 01:31:36;;;;;;;4.50;3.05;;;;;;;15.56;100.00;100978.97;5068986;28;20071;-82
2023/09/19 01:34:07;;;;;;;1.25;1.15;;;;;;;14.85;100.00;100857.28;5065583;28;20700;-83
2023/09/19 01:36:38;;;;;;;2.55;2.17;;;;;;;15.01;100.00;100860.59;5062733;28;20152;-83
2023/09/19 01:39:15;;;;;;;1.10;0.80;;;;;;;14.88;100.00;100846.66;5061389;28;20043;-83
2023/09/19 01:42:06;;;;;;;2.92;2.72;;;;;;;15.54;100.00;100971.03;5062297;28;20038;-83
2023/09/19 01:44:39;;;;;;;0.90;0.70;;;;;;;15.53;100.00;100965.78;5067435;28;20036;-83
2023/09/19 01:47:26;;;;;;;4.00;3.45;;;;;;;14.95;100.00;100861.56;5058310;28;20373;-83
2023/09/19 01:50:19;;;;;;;1.88;1.77;;;;;;;15.51;100.00;100979.03;5063980;28;20094;-83
2023/09/19 01:52:54;;;;;;;1.80;1.40;;;;;;;15.40;100.00;100960.66;5058314;28;20045;-82
2023/09/19 01:55:22;;;;;;;2.38;2.17;;;;;;;13.20;100.00;100646.66;5064815;28;20064;-82
2023/09/19 01:58:14;;;;;;;2.50;2.30;;;;;;;15.11;100.00;100973.28;5053405;28;20052;-83
2023/09/19 02:00:42;;;;;;;2.25;2.05;;;;;;;14.62;100.00;100960.50;5055788;28;20044;-83
2023/09/19 02:03:10;;;;;;;1.63;1.23;;;;;;;13.93;100.00;100882.66;5064900;28;20037;-82
2023/09/19 02:05:35;;;;;;;1.65;1.45;;;;;;;14.46;100.00;100964.97;5043819;28;20400;-82
2023/09/19 02:08:03;;;;;;;1.13;1.02;;;;;;;14.79;100.00;100990.28;5063554;28;20512;-82
2023/09/19 02:10:29;;;;;;;3.58;3.10;;;;;;;14.73;100.00;100940.16;5060265;28;20184;-82
2023/09/19 02:12:54;;;;;;;1.75;1.05;;;;;;;14.99;100.00;100992.78;5063824;28;20151;-81
2023/09/19 02:15:20;;;;;;;1.77;0.88;;;;;;;14.62;100.00;100955.22;5057232;28;20484;-82
2023/09/19 02:17:45;;;;;;;13.63;3.10;;;;;;;14.75;100.00;100946.31;5042591;28;20799;-82
2023/09/19 02:20:12;;;;;;;2.10;1.73;;;;;;;14.19;100.00;100898.31;5064122;28;20048;-82
2023/09/19 02:22:38;;;;;;;1.63;1.25;;;;;;;13.97;100.00;100910.75;5052602;28;20053;-84
2023/09/19 02:25:05;;;;;;;3.67;3.38;;;;;;;14.15;100.00;100938.78;5058129;28;20065;-83
2023/09/19 02:27:30;;;;;;;3.45;2.33;;;;;;;14.61;100.00;100961.38;5065033;28;20045;-84
2023/09/19 02:29:56;;;;;;;2.58;2.15;;;;;;;14.82;100.00;100952.41;5057162;28;20041;-84
2023/09/19 02:32:22;;;;;;;0.57;0.52;;;;;;;15.01;100.00;100991.00;5054154;28;20033;-83
2023/09/19 02:34:48;;;;;;;1.55;1.45;;;;;;;14.47;100.00;100945.59;5056485;28;20033;-81
2023/09/19 02:37:16;;;;;;;4.78;3.13;;;;;;;14.67;100.00;101003.59;5061841;28;20677;-82
2023/09/19 02:39:41;;;;;;;1.67;1.52;;;;;;;14.55;100.00;100967.59;5065971;28;20068;-81
2023/09/19 02:42:07;;;;;;;2.00;1.85;;;;;;;14.91;100.00;101000.78;5056497;28;20462;-81
2023/09/19 02:44:33;;;;;;;1.58;1.48;;;;;;;13.81;100.00;100788.59;5059206;28;20016;-82
2023/09/19 02:46:59;;;;;;;1.85;1.70;;;;;;;15.03;100.00;100972.47;5063768;28;20060;-83
2023/09/19 02:49:25;;;;;;;3.05;1.65;;;;;;;14.50;100.00;100879.56;5059613;28;20600;-81
2023/09/19 02:51:50;;;;;;;2.65;1.88;;;;;;;15.01;100.00;100974.25;5051611;28;20048;-82
2023/09/19 02:54:16;;;;;;;1.92;1.80;;;;;;;13.99;100.00;100910.75;5061437;28;20048;-81
2023/09/19 02:56:45;;;;;;;2.60;1.80;;;;;;;14.13;100.00;100930.00;5063280;28;20076;-82
2023/09/19 02:59:10;;;;;;;1.30;1.17;;;;;;;14.44;100.00;100945.63;5063639;28;20044;-83
2023/09/19 03:01:38;;;;;;;1.88;1.77;;;;;;;14.17;100.00;100896.56;5056718;28;20040;-81
2023/09/19 03:04:08;;;;;;;0.80;0.73;;;;;;;14.42;100.00;100957.97;5053981;28;20045;-81
2023/09/19 03:06:34;;;;;;;1.70;0.85;;;;;;;13.51;100.00;100816.94;5066108;28;20123;-81
2023/09/19 03:09:00;;;;;;;0.57;0.55;;;;;;;12.97;100.00;100671.41;5049594;28;20510;-81
2023/09/19 03:11:25;;;;;;;1.15;1.02;;;;;;;14.94;100.00;100984.00;5064571;28;20036;-81
2023/09/19 03:13:54;;;;;;;2.58;2.35;;;;;;;14.81;100.00;100948.00;5055866;28;20053;-83
2023/09/19 03:16:25;;;;;;;2.72;2.15;;;;;;;14.59;100.00;100916.50;5059021;28;20155;-82
2023/09/19 03:18:50;;;;;;;4.55;3.35;;;;;;;14.68;100.00;100982.47;5059259;28;20028;-82
2023/09/19 03:21:17;;;;;;;3.50;2.05;;;;;;;14.32;100.00;100991.47;5057730;28;20063;-82
2023/09/19 03:23:45;;;;;;;2.17;1.63;;;;;;;14.22;100.00;100964.25;5057229;28;20085;-82
2023/09/19 03:26:12;;;;;;;1.10;1.00;;;;;;;13.55;100.00;100853.84;5052048;28;20041;-83
2023/09/19 03:28:38;;;;;;;3.53;2.28;;;;;;;13.99;100.00;100959.09;5061490;28;20725;-81
2023/09/19 03:31:06;;;;;;;5.18;2.92;;;;;;;13.49;100.00;100886.38;5055815;28;20044;-81
2023/09/19 03:33:32;;;;;;;1.85;1.75;;;;;;;13.94;100.00;100972.31;5057287;28;20044;-82
2023/09/19 03:35:58;;;;;;;0.73;0.73;;;;;;;13.41;100.00;100893.44;5054172;28;20045;-83
2023/09/19 03:38:25;;;;;;;1.98;1.77;;;;;;;13.69;100.00;100892.41;5060831;28;20152;-83
2023/09/19 03:40:51;;;;;;;1.75;1.65;;;;;;;14.54;100.00;101002.81;5060270;28;20762;-81
2023/09/19 03:43:17;;;;;;;2.35;2.03;;;;;;;14.61;100.00;101001.00;5045797;28;20048;-82
2023/09/19 03:45:43;;;;;;;1.98;1.38;;;;;;;14.65;100.00;100994.81;5058878;28;20094;-82
2023/09/19 03:48:11;;;;;;;4.95;1.77;;;;;;;14.59;100.00;100984.31;5062955;28;20048;-83
2023/09/19 03:50:37;;;;;;;1.08;0.90;;;;;;;14.66;100.00;100983.38;5042769;28;20032;-83
2023/09/19 03:53:03;;;;;;;2.95;1.92;;;;;;;14.09;100.00;100859.66;5060239;28;20561;-81
2023/09/19 03:55:30;;;;;;;13.75;1.85;;;;;;;14.62;100.00;100971.94;5060179;28;20077;-81
2023/09/19 03:57:56;;;;;;;5.25;4.25;;;;;;;14.44;100.00;100978.19;5062060;28;20044;-83
2023/09/19 04:00:24;;;;;;;1.13;1.02;;;;;;;13.96;100.00;100961.75;5055479;28;20083;-82
2023/09/19 04:02:51;;;;;;;2.60;2.05;;;;;;;13.31;100.00;100884.69;5051573;28;20055;-84
2023/09/19 04:05:17;;;;;;;1.73;1.63;;;;;;;13.72;100.00;100920.56;5047874;28;20062;-82
2023/09/19 04:07:43;;;;;;;2.28;2.05;;;;;;;14.51;100.00;101002.78;5068347;28;20500;-82
2023/09/19 04:10:11;;;;;;;4.45;3.10;;;;;;;13.85;100.00;100880.03;5065636;28;20044;-83
2023/09/19 04:12:38;;;;;;;7.82;1.58;;;;;;;13.43;100.00;100892.53;5056874;28;20052;-82
2023/09/19 04:15:05;;;;;;;15.02;2.25;;;;;;;13.97;100.00;100995.16;5064957;28;20075;-82
2023/09/19 04:17:33;;;;;;;4.00;2.70;;;;;;;13.32;100.00;100906.66;5071610;28;20040;-81
2023/09/19 04:19:59;;;;;;;3.30;2.97;;;;;;;13.95;100.00;100999.56;5068125;28;20676;-82
2023/09/19 04:22:25;;;;;;;6.40;3.63;;;;;;;13.28;100.00;100879.44;5067276;28;20045;-80
2023/09/19 04:24:50;;;;;;;3.38;1.92;;;;;;;13.52;100.00;100884.59;5068563;28;20059;-81
2023/09/19 04:27:15;;;;;;;2.25;1.58;;;;;;;13.68;100.00;100906.50;5066618;28;20056;-83
2023/09/19 04:29:44;;;;;;;2.60;1.48;;;;;;;14.53;100.00;100993.09;5061103;28;20044;-81
2023/09/19 04:32:10;;;;;;;4.28;3.88;;;;;;;14.21;100.00;100907.09;5059613;28;20055;-80
2023/09/19 04:34:36;;;;;;;1.48;1.38;;;;;;;14.65;100.00;100971.91;5060105;28;20519;-83
2023/09/19 04:37:02;;;;;;;1.33;1.17;;;;;;;14.61;100.00;100957.00;5070997;28;20506;-83
2023/09/19 04:39:28;;;;;;;3.95;2.78;;;;;;;14.35;100.00;100947.47;5066834;28;20375;-82
2023/09/19 04:41:54;;;;;;;4.55;1.17;;;;;;;14.42;100.00;100945.66;5065913;28;20193;-81
2023/09/19 04:44:20;;;;;;;1.73;1.60;;;;;;;14.78;100.00;100980.63;5051127;28;20037;-81
2023/09/19 04:46:46;;;;;;;4.50;1.45;;;;;;;14.68;100.00;100958.69;5058976;28;20148;-81
2023/09/19 04:49:12;;;;;;;6.85;2.47;;;;;;;14.52;100.00;100907.72;5058450;28;20045;-81
2023/09/19 04:51:38;;;;;;;3.08;2.80;;;;;;;14.06;100.00;100867.59;5067519;28;20047;-81
2023/09/19 04:54:05;;;;;;;6.38;2.25;;;;;;;14.61;100.00;100930.56;5058121;28;20131;-82
2023/09/19 04:56:32;;;;;;;11.45;4.80;;;;;;;14.93;100.00;100926.75;5056429;28;20052;-82
2023/09/19 04:58:58;;;;;;;2.40;2.15;;;;;;;15.01;100.00;100940.78;5056742;28;20380;-82
2023/09/19 05:01:24;;;;;;;4.85;3.60;;;;;;;14.77;100.00;100889.03;5070627;28;20079;-82
2023/09/19 05:03:53;;;;;;;3.42;1.90;;;;;;;15.33;100.00;100953.66;5066451;28;20044;-84
2023/09/19 05:06:22;;;;;;;2.95;2.67;;;;;;;14.79;100.00;100852.91;5066068;28;20143;-83
2023/09/19 05:08:52;;;;;;;3.83;2.38;;;;;;;15.58;100.00;100950.75;5067813;28;20597;-83
2023/09/19 05:11:22;;;;;;;10.13;3.80;;;;;;;15.73;100.00;100954.97;5067763;28;20036;-82
2023/09/19 05:13:50;;;;;;;2.22;2.05;;;;;;;15.53;100.00;100926.13;5066311;28;20075;-83
2023/09/19 05:16:16;;;;;;;2.95;2.75;;;;;;;15.53;100.00;100944.63;5069664;28;20149;-81
2023/09/19 05:18:42;;;;;;;6.15;2.40;;;;;;;14.92;100.00;100822.81;5081888;28;20036;-80
2023/09/19 05:21:07;;;;;;;1.35;1.25;;;;;;;15.61;100.00;100927.75;5068690;28;20507;-82
2023/09/19 05:23:33;;;;;;;14.95;2.22;;;;;;;15.73;100.00;100926.78;5040980;28;20607;-82
2023/09/19 05:25:59;;;;;;;3.97;3.53;;;;;;;15.44;100.00;100823.94;5066287;28;20094;-81
2023/09/19 05:28:26;;;;;;;3.38;3.00;;;;;;;15.88;100.00;100886.00;5059963;28;20057;-83
2023/09/19 05:30:53;;;;;;;2.75;2.38;;;;;;;15.98;100.00;100833.78;5063770;28;20057;-83
2023/09/19 05:33:20;;;;;;;4.35;3.95;;;;;;;16.34;100.00;100828.78;5062655;28;20036;-82
2023/09/19 05:35:48;;;;;;;3.85;2.28;;;;;;;17.57;100.00;100927.25;5049798;28;20041;-82
2023/09/19 05:38:15;;;;;;;2.60;1.88;;;;;;;17.59;100.00;100820.19;5041002;28;20064;-83
2023/09/19 05:40:42;;;;;;;4.80;2.63;;;;;;;18.80;100.00;100908.53;5042370;28;20048;-83
2023/09/19 05:43:08;;;;;;;6.25;4.25;;;;;;;18.51;100.00;100811.78;5058036;28;20051;-80
2023/09/19 05:45:34;;;;;;;2.13;1.27;;;;;;;19.88;100.00;100906.38;5058168;28;20044;-82
2023/09/19 05:48:11;;;;;;;3.63;2.45;;;;;;;20.21;100.00;100886.69;5062124;28;20033;-81
2023/09/19 05:50:37;;;;;;;2.17;1.92;;;;;;;20.21;100.00;100819.19;5060120;28;20028;-81
2023/09/19 05:53:04;;;;;;;1.05;0.95;;;;;;;20.78;100.00;100908.81;5059520;28;20037;-80
2023/09/19 05:55:29;;;;;;;3.60;3.22;;;;;;;20.82;100.00;100894.44;5063166;28;20754;-81
2023/09/19 05:57:55;;;;;;;0.70;0.55;;;;;;;20.49;100.00;100887.59;5060123;28;20088;-80
2023/09/19 06:00:23;;;;;;;7.70;4.15;;;;;;;19.96;100.00;100817.31;5058096;28;20063;-82
2023/09/19 06:02:52;;;;;;;2.47;2.17;;;;;;;20.15;100.00;100894.88;5060511;28;20059;-80
2023/09/19 06:05:18;;;;;;;3.28;2.92;;;;;;;20.04;100.00;100886.34;5062496;28;20028;-81
2023/09/19 06:07:46;;;;;;;3.22;2.58;;;;;;;18.60;100.00;100792.94;5062440;28;20033;-80
2023/09/19 06:10:12;;;;;;;5.65;1.55;;;;;;;19.13;100.00;100787.91;5048495;28;20141;-80
2023/09/19 06:12:39;;;;;;;2.17;1.88;;;;;;;20.03;100.00;100876.63;5059707;28;20119;-81
2023/09/19 06:15:06;;;;;;;0.47;0.47;;;;;;;19.79;100.00;100868.47;5042836;28;20048;-80
2023/09/19 06:17:31;;;;;;;2.97;2.72;;;;;;;19.90;100.00;100880.56;5066405;28;20051;-82
2023/09/19 06:19:57;;;;;;;2.80;2.33;;;;;;;19.53;100.00;100785.84;5063336;28;20025;-80
2023/09/19 06:22:23;;;;;;;2.05;1.85;;;;;;;19.66;100.00;100885.69;5066490;28;20033;-81
2023/09/19 06:24:51;;;;;;;2.20;1.85;;;;;;;19.18;100.00;100876.44;5066556;28;20331;-80
2023/09/19 06:27:16;;;;;;;20.27;1.58;;;;;;;19.42;100.00;100868.66;5049474;28;20548;-80
2023/09/19 06:29:42;;;;;;;1.38;1.15;;;;;;;19.56;100.00;100799.91;5060614;28;20119;-80
2023/09/19 06:32:10;;;;;;;4.00;1.67;;;;;;;19.86;100.00;100876.28;5067062;28;20439;-80
2023/09/19 06:34:38;;;;;;;1.27;0.93;;;;;;;19.72;100.00;100828.78;5054659;28;20519;-81
2023/09/19 06:37:06;;;;;;;0.85;0.77;;;;;;;19.74;100.00;100861.56;5066257;28;20049;-82
2023/09/19 06:39:31;;;;;;;3.05;1.58;;;;;;;19.35;100.00;100849.34;5065726;28;20049;-80
2023/09/19 06:41:58;;;;;;;0.95;0.90;;;;;;;19.90;100.00;100862.81;5064782;28;20040;-80
2023/09/19 06:44:24;;;;;;;1.63;1.23;;;;;;;19.33;100.00;100760.69;5047491;28;20068;-80
2023/09/19 06:46:51;;;;;;;0.90;0.80;;;;;;;19.83;100.00;100824.00;5057228;28;20041;-80
2023/09/19 06:49:17;;;;;;;1.08;0.82;;;;;;;19.81;100.00;100801.84;5057417;28;20056;-81
2023/09/19 06:51:43;;;;;;;1.77;1.63;;;;;;;20.23;100.00;100841.34;5071690;28;20148;-81
2023/09/19 06:54:09;;;;;;;0.93;0.88;;;;;;;20.24;100.00;100861.72;5046728;28;20674;-81
2023/09/19 06:56:35;;;;;;;1.70;1.60;;;;;;;19.77;100.00;100738.97;5062096;28;20063;-81
2023/09/19 06:59:02;;;;;;;1.52;1.40;;;;;;;20.16;100.00;100838.00;5061224;28;20468;-81
2023/09/19 07:01:29;;;;;;;0.28;0.20;;;;;;;20.24;100.00;100867.91;5059611;28;20146;-81
2023/09/19 07:03:55;;;;;;;0.98;0.82;;;;;;;19.52;100.00;100755.66;5055745;28;20037;-81
2023/09/19 07:06:20;;;;;;;1.08;1.05;;;;;;;19.65;100.00;100784.59;5064120;28;20056;-81
2023/09/19 07:08:46;;;;;;;1.50;1.40;;;;;;;20.04;100.00;100838.38;5065354;28;20036;-80
2023/09/19 07:11:12;;;;;;;1.08;1.00;;;;;;;20.29;100.00;100867.78;5038963;28;20122;-80
2023/09/19 07:13:39;;;;;;;0.82;0.82;;;;;;;20.32;100.00;100826.81;5063068;28;20049;-80
2023/09/19 07:16:04;;;;;;;1.42;1.33;;;;;;;20.18;100.00;100844.16;5062027;28;20136;-80
2023/09/19 07:18:31;;;;;;;2.97;2.67;;;;;;;20.15;100.00;100828.25;5064345;28;20499;-82
2023/09/19 07:21:04;;;;;;;1.13;1.02;;;;;;;20.59;100.00;100865.03;5057729;28;20059;-80
2023/09/19 07:23:34;;;;;;;1.77;1.20;;;;;;;20.59;100.00;100862.38;5065017;28;20051;-81
2023/09/19 07:26:01;;;;;;;2.38;2.17;;;;;;;20.72;100.00;100863.69;5064474;28;20028;-81
2023/09/19 07:28:28;;;;;;;1.00;0.90;;;;;;;20.01;100.00;100778.09;5060883;28;20504;-80
2023/09/19 07:30:53;;;;;;;1.73;1.63;;;;;;;20.86;100.00;100856.09;5036741;28;20493;-80
2023/09/19 07:33:19;;;;;;;1.80;1.25;;;;;;;20.89;100.00;100828.41;5046916;28;20119;-80
2023/09/19 07:35:48;;;;;;;6.53;1.33;;;;;;;20.79;100.00;100830.56;5060640;28;20139;-79
2023/09/19 07:38:13;;;;;;;5.97;2.03;;;;;;;20.26;100.00;100766.59;5061085;28;20039;-81
2023/09/19 07:40:39;;;;;;;4.15;2.78;;;;;;;20.82;100.00;100821.56;5059333;28;20053;-80
2023/09/19 07:43:06;;;;;;;4.70;0.85;;;;;;;20.86;100.00;100841.84;5057098;28;20950;-80
2023/09/19 07:45:32;;;;;;;1.00;0.80;;;;;;;20.44;100.00;100749.97;5054695;28;20040;-80
2023/09/19 07:48:00;;;;;;;1.25;1.20;;;;;;;20.49;100.00;100828.94;5060033;28;20037;-81
2023/09/19 07:50:26;;;;;;;2.17;1.30;;;;;;;20.60;100.00;100801.00;5062775;28;20025;-80
2023/09/19 07:52:52;;;;;;;1.88;1.67;;;;;;;20.85;100.00;100832.13;5064408;28;20096;-81
2023/09/19 07:55:19;;;;;;;0.98;0.40;;;;;;;20.76;100.00;100797.78;5046479;28;20044;-82
2023/09/19 07:57:45;;;;;;;0.50;0.50;;;;;;;20.55;100.00;100730.03;5050370;28;20049;-80
2023/09/19 08:00:11;;;;;;;2.17;0.85;;;;;;;20.68;100.00;100759.84;5066700;28;20082;-80
2023/09/19 08:02:41;;;;;;;0.77;0.63;;;;;;;21.17;100.00;100835.41;5069413;28;20036;-81
2023/09/19 08:05:11;;;;;;;1.45;1.23;;;;;;;21.16;100.00;100820.31;5066447;28;20040;-81
2023/09/19 08:07:40;;;;;;;1.25;0.85;;;;;;;21.52;100.00;100830.53;5065761;28;20037;-81
2023/09/19 08:10:07;;;;;;;4.78;1.75;;;;;;;21.23;100.00;100840.50;5069320;28;20135;-80
2023/09/19 08:12:35;;;;;;;0.25;0.25;;;;;;;21.33;100.00;100828.56;5064633;28;20041;-81
2023/09/19 08:15:02;;;;;;;0.63;0.63;;;;;;;21.42;100.00;100822.03;5067331;28;20511;-82
2023/09/19 08:17:28;;;;;;;2.28;2.08;;;;;;;21.01;100.00;100798.63;5068182;28;20036;-79
2023/09/19 08:19:53;;;;;;;0.32;0.32;;;;;;;20.81;100.00;100756.69;5066039;28;20039;-80
2023/09/19 08:22:23;;;;;;;1.25;1.08;;;;;;;20.76;100.00;100726.63;5066030;28;21063;-81
2023/09/19 08:24:49;;;;;;;1.13;1.10;;;;;;;20.83;100.00;100717.47;5062553;28;20083;-80
2023/09/19 08:27:15;;;;;;;0.47;0.43;;;;;;;21.44;100.00;100797.00;5046104;28;20838;-80
2023/09/19 08:29:42;;;;;;;0.40;0.40;;;;;;;20.90;100.00;100717.25;5068272;28;20033;-81
2023/09/19 08:32:07;;;;;;;0.55;0.47;;;;;;;20.86;100.00;100725.38;5066473;28;20369;-81
2023/09/19 08:34:33;;;;;;;1.00;0.95;;;;;;;21.23;100.00;100832.50;5068493;28;20066;-82
2023/09/19 08:36:59;;;;;;;3.28;1.67;;;;;;;21.54;100.00;100826.03;5068725;28;20068;-81
2023/09/19 08:39:25;;;;;;;0.73;0.52;;;;;;;21.92;100.00;100822.72;5064078;28;20164;-80
2023/09/19 08:42:01;;;;;;;0.90;0.85;;;;;;;21.56;100.00;100816.16;5060644;28;20087;-81
2023/09/19 08:44:30;;;;;;;3.03;1.15;;;;;;;21.10;100.00;100732.50;5062273;28;20119;-80
2023/09/19 08:47:09;;;;;;;1.08;0.80;;;;;;;21.62;100.00;100811.44;5045917;28;20079;-81
2023/09/19 08:49:53;;;;;;;0.80;0.75;;;;;;;21.72;100.00;100801.25;5062378;28;20401;-80
2023/09/19 08:52:36;;;;;;;1.77;1.67;;;;;;;21.80;100.00;100787.63;5062322;28;20183;-82
2023/09/19 08:55:10;;;;;;;1.02;0.85;;;;;;;22.24;100.00;100807.19;5055507;28;20520;-80
2023/09/19 08:57:41;;;;;;;0.28;0.28;;;;;;;22.11;100.00;100798.75;5063829;28;20056;-79
2023/09/19 09:00:11;;;;;;;0.40;0.28;;;;;;;21.08;100.00;100617.81;5064424;28;20029;-82
2023/09/19 09:02:42;;;;;;;0.77;0.77;;;;;;;22.35;100.00;100793.34;5052802;28;20027;-80
2023/09/19 09:05:09;;;;;;;0.57;0.50;;;;;;;22.30;100.00;100744.56;5061675;28;20039;-80
2023/09/19 09:07:42;;;;;;;2.38;1.48;;;;;;;22.60;100.00;100793.16;5067203;28;20149;-81
2023/09/19 09:10:08;;;;;;;4.05;1.95;;;;;;;22.19;100.00;100704.00;5062499;28;20032;-80
2023/09/19 09:12:36;;;;;;;1.92;1.80;;;;;;;22.37;100.00;100697.88;5063507;28;20102;-80
2023/09/19 09:15:03;;;;;;;0.47;0.47;;;;;;;22.59;100.00;100703.13;5068256;28;20127;-80
2023/09/19 09:17:29;;;;;;;1.02;1.02;;;;;;;22.80;100.00;100727.19;5067384;28;20067;-80
2023/09/19 09:19:55;;;;;;;0.45;0.40;;;;;;;23.23;100.00;100792.16;5067664;28;20060;-81
2023/09/19 09:22:21;;;;;;;1.58;1.48;;;;;;;22.71;100.00;100702.59;5057999;28;20067;-81
2023/09/19 09:24:58;;;;;;;1.23;1.13;;;;;;;22.80;100.00;100802.97;5063431;28;20142;-81
2023/09/19 09:27:24;;;;;;;0.80;0.80;;;;;;;22.57;100.00;100729.09;5055882;28;20060;-82
2023/09/19 09:29:54;;;;;;;1.42;1.25;;;;;;;22.33;100.00;100681.09;5066648;28;20051;-82
2023/09/19 09:32:28;;;;;;;0.35;0.35;;;;;;;23.16;100.00;100771.00;5068118;28;20025;-81
2023/09/19 09:34:59;;;;;;;0.47;0.47;;;;;;;23.16;100.00;100776.38;5063897;28;20047;-81
2023/09/19 09:37:26;;;;;;;0.55;0.55;;;;;;;22.51;100.00;100711.50;5061020;28;20052;-82
2023/09/19 09:39:58;;;;;;;0.95;0.90;;;;;;;23.02;100.00;100788.66;5066913;28;20040;-80
2023/09/19 09:42:38;;;;;;;0.75;0.75;;;;;;;23.22;100.00;100775.19;5062253;28;20136;-82
2023/09/19 09:48:03;;;;;;;0.65;0.45;;;;;;;23.36;100.00;100783.44;5062444;28;20037;-81
2023/09/19 09:51:07;;;;;;;0.47;0.47;;;;;;;23.40;97.04;100786.88;5066544;28;20032;-81
2023/09/19 09:53:32;;;;;;;0.95;0.90;;;;;;;23.54;96.21;100775.50;5053407;28;20053;-81
2023/09/19 09:56:09;;;;;;;0.60;0.50;;;;;;;23.20;96.60;100711.97;5066752;28;20057;-81
2023/09/19 09:58:49;;;;;;;0.45;0.40;;;;;;;23.26;97.59;100669.69;5065917;28;20613;-80
2023/09/19 10:01:15;;;;;;;0.57;0.57;;;;;;;23.31;95.54;100673.00;5061736;28;20619;-81
2023/09/19 10:03:48;;;;;;;0.95;0.85;;;;;;;23.52;97.03;100740.72;5066270;28;20036;-82
2023/09/19 10:06:28;;;;;;;1.00;0.80;;;;;;;23.56;96.31;100750.38;5061249;28;20127;-80
2023/09/19 10:09:29;;;;;;;0.40;0.40;;;;;;;23.85;83.70;100763.31;5047904;28;20068;-82
2023/09/19 10:12:08;;;;;;;0.93;0.93;;;;;;;24.27;73.27;100759.41;5059481;28;20059;-82
2023/09/19 10:14:38;;;;;;;0.75;0.75;;;;;;;23.79;73.97;100749.28;5034079;28;20090;-82
2023/09/19 10:17:05;;;;;;;0.50;0.50;;;;;;;23.83;72.97;100687.47;5060228;28;20037;-80
2023/09/19 10:19:46;;;;;;;1.60;1.15;;;;;;;23.65;74.53;100660.63;5047390;28;20083;-81
2023/09/19 10:22:14;;;;;;;0.90;0.70;;;;;;;24.09;69.15;100751.38;5065900;28;20050;-81
2023/09/19 10:24:41;;;;;;;5.50;1.90;;;;;;;23.31;69.50;100717.69;5049051;28;20144;-81
2023/09/19 10:27:10;;;;;;;0.20;0.20;;;;;;;23.54;69.26;100746.88;5064636;28;20089;-81
2023/09/19 10:29:39;;;;;;;0.30;0.25;;;;;;;24.14;68.68;100737.69;5059402;28;20028;-81
2023/09/19 10:32:06;;;;;;;1.02;0.93;;;;;;;24.23;68.27;100751.53;5065965;28;20060;-81
2023/09/19 10:34:36;;;;;;;2.53;1.65;;;;;;;23.80;70.23;100656.34;5061923;28;20068;-81
2023/09/19 10:37:05;;;;;;;1.00;0.80;;;;;;;23.64;70.05;100594.59;5061918;28;20048;-81
2023/09/19 10:39:33;;;;;;;0.30;0.30;;;;;;;24.51;69.54;100715.22;5065303;28;20504;-82
2023/09/19 10:42:05;;;;;;;2.10;1.42;;;;;;;24.20;71.37;100668.53;5062491;28;20492;-81
2023/09/19 10:44:32;;;;;;;0.40;0.40;;;;;;;23.79;60.39;100658.16;5065532;28;20024;-80
2023/09/19 10:46:59;;;;;;;0.30;0.30;;;;;;;23.98;58.51;100650.03;5059454;28;20512;-81
2023/09/19 10:49:25;;;;;;;0.45;0.20;;;;;;;24.06;56.43;100668.38;5066455;28;20044;-82
2023/09/19 10:51:59;;;;;;;1.10;0.40;;;;;;;23.93;55.55;100719.09;5046449;28;20143;-82
2023/09/19 10:54:28;;;;;;;0.77;0.77;;;;;;;23.90;56.56;100735.31;5065065;28;20163;-80
2023/09/19 10:56:54;;;;;;;0.30;0.30;;;;;;;24.07;56.14;100736.28;5054843;28;20040;-81
2023/09/19 10:59:21;;;;;;;0.10;0.10;;;;;;;24.42;54.23;100727.28;5065592;28;20032;-81
2023/09/19 11:01:58;;;;;;;0.38;0.20;;;;;;;24.71;53.71;100718.66;5056169;28;20063;-80
2023/09/19 11:04:35;;;;;;;0.65;0.55;;;;;;;25.07;53.96;100729.19;5059419;28;20053;-81
2023/09/19 11:07:10;;;;;;;0.43;0.40;;;;;;;25.49;53.46;100733.13;5059989;28;20037;-82
2023/09/19 11:09:53;;;;;;;0.60;0.60;;;;;;;25.32;54.14;100733.22;5059767;28;20118;-82
2023/09/19 11:12:52;;;;;;;;;;;;;;;25.25;54.25;100728.19;5049281;28;20051;-81
2023/09/19 11:15:53;;;;;;;0.77;0.70;;;;;;;24.86;53.79;100725.88;5052356;28;19946;-81
2023/09/19 11:18:40;;;;;;;0.43;0.40;;;;;;;23.98;55.17;100719.72;5065236;28;20126;-81
2023/09/19 11:21:31;;;;;;;0.75;0.73;;;;;;;24.41;54.44;100724.69;5064984;28;20045;-81
2023/09/19 11:24:27;;;;;;;0.65;0.65;;;;;;;24.81;56.00;100725.25;5053638;28;20049;-82
2023/09/19 11:27:09;;;;;;;1.10;1.05;;;;;;;24.55;49.93;100727.53;5061523;28;20056;-81
2023/09/19 11:29:37;;;;;;;1.88;1.63;;;;;;;24.35;50.66;100716.94;5053366;28;20044;-81
2023/09/19 11:32:04;;;;;;;0.20;0.15;;;;;;;24.95;51.21;100729.88;5062723;28;20043;-82